createdAt,value
2023-11-04T00:02:02.967Z,63.60
2023-11-04T00:04:29.729Z,63.60
2023-11-04T00:06:56.717Z,63.70
2023-11-04T00:09:34.406Z,63.80
2023-11-04T00:12:08.813Z,63.70
2023-11-04T00:14:36.326Z,63.80
2023-11-04T00:17:03.414Z,63.80
2023-11-04T00:19:30.305Z,63.80
2023-11-04T00:21:57.015Z,63.80
2023-11-04T00:24:23.890Z,63.80
2023-11-04T00:26:50.665Z,63.80
2023-11-04T00:29:17.322Z,63.80
2023-11-04T00:31:43.996Z,63.80
2023-11-04T00:34:10.716Z,63.80
2023-11-04T00:36:37.423Z,63.90
2023-11-04T00:39:04.189Z,63.80
2023-11-04T00:41:31.821Z,63.90
2023-11-04T00:43:58.587Z,63.90
2023-11-04T00:46:26.410Z,63.70
2023-11-04T00:48:55.153Z,63.80
2023-11-04T00:51:22.613Z,63.90
2023-11-04T00:53:49.267Z,63.80
2023-11-04T00:56:15.917Z,63.80
2023-11-04T00:58:42.531Z,63.70
2023-11-04T01:01:09.200Z,63.80
2023-11-04T01:03:36.165Z,63.80
2023-11-04T01:06:02.922Z,63.60
2023-11-04T01:08:29.563Z,63.60
2023-11-04T01:10:56.176Z,63.70
2023-11-04T01:13:22.934Z,63.60
2023-11-04T01:15:49.828Z,63.70
2023-11-04T01:18:16.587Z,63.80
2023-11-04T01:20:43.246Z,63.70
2023-11-04T01:23:10.296Z,63.70
2023-11-04T01:25:36.923Z,63.70
2023-11-04T01:28:03.969Z,63.70
2023-11-04T01:30:30.615Z,63.70
2023-11-04T01:32:58.464Z,63.70
2023-11-04T01:35:25.155Z,63.70
2023-11-04T01:37:51.795Z,63.70
2023-11-04T01:40:18.519Z,63.70
2023-11-04T01:42:46.278Z,63.70
2023-11-04T01:45:13.469Z,63.70
2023-11-04T01:47:43.243Z,63.60
2023-11-04T01:50:10.093Z,63.50
2023-11-04T01:52:41.779Z,63.60
2023-11-04T01:55:10.682Z,63.60
2023-11-04T01:57:38.316Z,63.50
2023-11-04T02:00:06.525Z,63.60
2023-11-04T02:02:33.346Z,63.50
2023-11-04T02:05:00.882Z,63.50
2023-11-04T02:07:27.602Z,63.50
2023-11-04T02:09:54.474Z,63.40
2023-11-04T02:12:22.954Z,63.40
2023-11-04T02:14:53.672Z,63.50
2023-11-04T02:17:20.850Z,63.30
2023-11-04T02:19:47.646Z,63.30
2023-11-04T02:22:15.493Z,63.30
2023-11-04T02:24:42.498Z,63.30
2023-11-04T02:27:09.177Z,63.30
2023-11-04T02:29:35.873Z,63.30
2023-11-04T02:32:02.574Z,63.30
2023-11-04T02:34:29.282Z,63.30
2023-11-04T02:36:56.058Z,63.30
2023-11-04T02:39:22.867Z,63.20
2023-11-04T02:41:49.599Z,63.30
2023-11-04T02:44:16.410Z,63.20
2023-11-04T02:46:43.067Z,63.20
2023-11-04T02:49:09.728Z,63.20
2023-11-04T02:51:36.445Z,63.10
2023-11-04T02:54:03.109Z,63.10
2023-11-04T02:56:29.737Z,63.10
2023-11-04T02:58:59.196Z,63.10
2023-11-04T03:01:25.870Z,63.10
2023-11-04T03:03:52.639Z,63.10
2023-11-04T03:06:25.927Z,63.10
2023-11-04T03:08:52.783Z,63.10
2023-11-04T03:11:19.716Z,63.10
2023-11-04T03:13:46.683Z,63.10
2023-11-04T03:16:20.825Z,63.10
2023-11-04T03:18:49.073Z,63.10
2023-11-04T03:21:16.931Z,63.10
2023-11-04T03:23:45.534Z,62.90
2023-11-04T03:26:14.012Z,63.10
2023-11-04T03:28:40.672Z,62.90
2023-11-04T03:31:07.467Z,63.00
2023-11-04T03:33:34.179Z,62.90
2023-11-04T03:36:00.878Z,62.80
2023-11-04T03:38:27.503Z,62.80
2023-11-04T03:40:54.764Z,62.90
2023-11-04T03:43:22.056Z,62.80
2023-11-04T03:45:49.009Z,62.80
2023-11-04T03:48:15.944Z,62.80
2023-11-04T03:50:43.248Z,62.80
2023-11-04T03:53:10.036Z,62.70
2023-11-04T03:55:37.311Z,62.80
2023-11-04T03:58:04.041Z,62.10
2023-11-04T04:00:30.717Z,62.70
2023-11-04T04:02:57.443Z,62.70
2023-11-04T04:05:24.208Z,62.80
2023-11-04T04:07:50.996Z,62.80
2023-11-04T04:10:18.417Z,62.70
2023-11-04T04:12:48.688Z,62.80
2023-11-04T04:15:15.883Z,62.80
2023-11-04T04:17:42.629Z,62.80
2023-11-04T04:20:12.396Z,62.80
2023-11-04T04:22:39.174Z,62.80
2023-11-04T04:25:06.212Z,62.80
2023-11-04T04:27:32.880Z,62.90
2023-11-04T04:29:59.528Z,62.80
2023-11-04T04:32:26.367Z,62.90
2023-11-04T04:34:53.459Z,62.80
2023-11-04T04:37:20.195Z,62.90
2023-11-04T04:39:47.080Z,62.80
2023-11-04T04:42:13.956Z,62.80
2023-11-04T04:44:40.628Z,62.90
2023-11-04T04:47:07.290Z,62.80
2023-11-04T04:49:34.048Z,62.90
2023-11-04T04:52:00.921Z,62.90
2023-11-04T04:54:27.859Z,62.90
2023-11-04T04:56:54.529Z,62.90
2023-11-04T04:59:21.447Z,62.90
2023-11-04T05:01:48.128Z,62.90
2023-11-04T05:04:15.147Z,63.00
2023-11-04T05:06:42.214Z,63.00
2023-11-04T05:09:09.603Z,63.70
2023-11-04T05:11:36.273Z,63.00
2023-11-04T05:14:04.529Z,63.10
2023-11-04T05:16:31.231Z,63.00
2023-11-04T05:18:57.909Z,62.40
2023-11-04T05:21:26.383Z,63.00
2023-11-04T05:23:53.191Z,63.00
2023-11-04T05:26:19.968Z,63.00
2023-11-04T05:28:46.690Z,63.20
2023-11-04T05:31:13.323Z,63.10
2023-11-04T05:33:40.178Z,63.10
2023-11-04T05:36:07.230Z,63.10
2023-11-04T05:38:33.982Z,63.10
2023-11-04T05:41:01.971Z,61.80
2023-11-04T05:43:28.629Z,63.20
2023-11-04T05:45:55.322Z,63.20
2023-11-04T05:48:22.225Z,63.20
2023-11-04T05:50:49.043Z,63.20
2023-11-04T05:53:17.304Z,64.80
2023-11-04T05:55:44.093Z,63.30
2023-11-04T05:58:11.020Z,63.30
2023-11-04T06:00:38.011Z,63.30
2023-11-04T06:03:04.808Z,63.30
2023-11-04T06:05:32.215Z,63.30
2023-11-04T06:08:05.092Z,63.30
2023-11-04T06:10:31.793Z,65.80
2023-11-04T06:12:58.558Z,63.30
2023-11-04T06:15:25.495Z,63.40
2023-11-04T06:17:52.359Z,63.30
2023-11-04T06:20:19.282Z,63.30
2023-11-04T06:22:46.160Z,63.30
2023-11-04T06:25:12.958Z,63.30
2023-11-04T06:27:39.684Z,63.30
2023-11-04T06:30:08.366Z,63.30
2023-11-04T06:32:35.115Z,63.40
2023-11-04T06:35:01.906Z,63.30
2023-11-04T06:37:28.605Z,63.30
2023-11-04T06:39:55.264Z,63.40
2023-11-04T06:42:27.814Z,63.40
2023-11-04T06:44:55.696Z,63.30
2023-11-04T06:47:24.060Z,63.30
2023-11-04T06:49:51.036Z,63.30
2023-11-04T06:52:17.754Z,63.30
2023-11-04T06:54:44.609Z,63.30
2023-11-04T06:57:11.528Z,63.30
2023-11-04T06:59:41.698Z,63.20
2023-11-04T07:02:08.603Z,63.20
2023-11-04T07:04:35.529Z,63.20
2023-11-04T07:07:03.044Z,63.20
2023-11-04T07:09:33.310Z,63.20
2023-11-04T07:12:00.648Z,63.20
2023-11-04T07:14:27.370Z,63.10
2023-11-04T07:16:56.772Z,63.20
2023-11-04T07:19:23.520Z,63.00
2023-11-04T07:21:50.417Z,63.10
2023-11-04T07:24:17.327Z,63.30
2023-11-04T07:26:46.127Z,63.40
2023-11-04T07:29:13.052Z,63.50
2023-11-04T07:31:40.032Z,62.80
2023-11-04T07:34:06.796Z,63.50
2023-11-04T07:36:33.797Z,63.60
2023-11-04T07:39:04.036Z,64.20
2023-11-04T07:41:30.816Z,63.60
2023-11-04T07:43:57.488Z,63.60
2023-11-04T07:46:24.481Z,63.60
2023-11-04T07:48:51.577Z,63.80
2023-11-04T07:51:18.284Z,63.20
2023-11-04T07:53:44.892Z,63.70
2023-11-04T07:56:12.696Z,63.90
2023-11-04T07:58:39.436Z,63.90
2023-11-04T08:01:06.937Z,63.90
2023-11-04T08:03:34.018Z,63.90
2023-11-04T08:06:00.818Z,64.00
2023-11-04T08:08:27.447Z,63.90
2023-11-04T08:10:54.086Z,63.80
2023-11-04T08:13:23.173Z,63.80
2023-11-04T08:15:50.143Z,63.80
2023-11-04T08:18:16.933Z,63.80
2023-11-04T08:20:44.240Z,63.80
2023-11-04T08:23:10.898Z,63.80
2023-11-04T08:25:37.564Z,63.80
2023-11-04T08:28:04.392Z,63.90
2023-11-04T08:30:31.203Z,64.00
2023-11-04T08:32:58.098Z,64.00
2023-11-04T08:35:24.777Z,64.00
2023-11-04T08:37:51.801Z,64.00
2023-11-04T08:40:18.666Z,64.00
2023-11-04T08:42:45.474Z,64.10
2023-11-04T08:45:15.016Z,64.10
2023-11-04T08:47:42.249Z,64.10
2023-11-04T08:50:09.508Z,64.10
2023-11-04T08:52:36.265Z,64.40
2023-11-04T08:55:05.377Z,64.40
2023-11-04T08:57:35.143Z,64.40
2023-11-04T09:00:05.737Z,64.40
2023-11-04T09:02:32.875Z,64.40
2023-11-04T09:05:05.844Z,64.40
2023-11-04T09:07:35.828Z,64.20
2023-11-04T09:10:02.693Z,64.00
2023-11-04T09:12:29.402Z,64.10
2023-11-04T09:14:56.048Z,64.10
2023-11-04T09:17:23.187Z,64.20
2023-11-04T09:19:49.840Z,64.20
2023-11-04T09:22:16.779Z,64.20
2023-11-04T09:24:43.511Z,64.20
2023-11-04T09:27:10.207Z,64.20
2023-11-04T09:29:37.140Z,64.30
2023-11-04T09:32:04.076Z,64.50
2023-11-04T09:34:30.926Z,64.50
2023-11-04T09:36:57.636Z,64.40
2023-11-04T09:39:24.319Z,64.50
2023-11-04T09:41:52.661Z,64.40
2023-11-04T09:44:19.964Z,64.50
2023-11-04T09:46:46.795Z,64.50
2023-11-04T09:49:14.020Z,64.50
2023-11-04T09:51:41.010Z,64.60
2023-11-04T09:54:10.553Z,64.70
2023-11-04T09:56:37.252Z,64.70
2023-11-04T09:59:06.029Z,64.80
2023-11-04T10:01:32.839Z,64.80
2023-11-04T10:03:59.629Z,64.90
2023-11-04T10:06:26.984Z,64.90
2023-11-04T10:08:53.738Z,64.90
2023-11-04T10:11:20.387Z,64.80
2023-11-04T10:13:47.087Z,64.90
2023-11-04T10:16:13.786Z,64.90
2023-11-04T10:18:40.586Z,64.90
2023-11-04T10:21:07.987Z,65.00
2023-11-04T10:23:36.025Z,65.10
2023-11-04T10:26:04.867Z,65.10
2023-11-04T10:28:32.298Z,65.00
2023-11-04T10:31:07.567Z,64.80
2023-11-04T10:33:38.168Z,64.80
2023-11-04T10:36:06.760Z,64.80
2023-11-04T10:38:40.344Z,64.80
2023-11-04T10:41:08.229Z,64.70
2023-11-04T10:43:45.820Z,64.70
2023-11-04T10:46:18.430Z,64.70
2023-11-04T10:48:54.788Z,64.70
2023-11-04T10:51:29.691Z,64.80
2023-11-04T10:54:17.726Z,64.70
2023-11-04T10:56:49.218Z,64.70
2023-11-04T10:59:30.951Z,64.50
2023-11-04T11:01:58.524Z,64.50
2023-11-04T11:04:26.458Z,64.60
2023-11-04T11:06:54.491Z,64.70
2023-11-04T11:09:24.558Z,64.20
2023-11-04T11:11:56.758Z,64.20
2023-11-04T11:14:23.852Z,64.40
2023-11-04T11:17:01.906Z,64.40
2023-11-04T11:19:29.102Z,64.70
2023-11-04T11:21:55.975Z,64.60
2023-11-04T11:24:23.224Z,64.60
2023-11-04T11:27:00.104Z,64.60
2023-11-04T11:29:27.384Z,64.60
2023-11-04T11:32:06.904Z,64.70
2023-11-04T11:34:33.941Z,64.80
2023-11-04T11:37:01.792Z,65.10
2023-11-04T11:39:30.920Z,64.70
2023-11-04T11:42:00.712Z,64.70
2023-11-04T11:44:27.450Z,64.80
2023-11-04T11:46:56.927Z,64.80
2023-11-04T11:49:23.746Z,64.70
2023-11-04T11:51:50.641Z,64.70
2023-11-04T11:54:17.559Z,64.70
2023-11-04T11:56:45.981Z,64.70
2023-11-04T11:59:14.478Z,64.80
2023-11-04T12:01:41.213Z,64.80
2023-11-04T12:04:08.186Z,64.80
2023-11-04T12:06:37.363Z,64.80
2023-11-04T12:09:06.655Z,64.70
2023-11-04T12:11:33.680Z,64.70
2023-11-04T12:14:02.296Z,64.70
2023-11-04T12:16:30.690Z,64.60
2023-11-04T12:18:57.766Z,64.40
2023-11-04T12:21:24.576Z,64.20
2023-11-04T12:23:51.392Z,64.20
2023-11-04T12:26:18.230Z,64.20
2023-11-04T12:28:45.652Z,64.10
2023-11-04T12:31:13.967Z,64.00
2023-11-04T12:33:41.675Z,64.10
2023-11-04T12:36:12.726Z,64.00
2023-11-04T12:38:45.416Z,64.00
2023-11-04T12:41:19.722Z,64.00
2023-11-04T12:43:46.740Z,64.00
2023-11-04T12:46:14.555Z,64.00
2023-11-04T12:48:41.461Z,64.10
2023-11-04T12:51:10.287Z,64.20
2023-11-04T12:53:38.350Z,64.20
2023-11-04T12:56:05.441Z,64.20
2023-11-04T12:58:34.838Z,64.30
2023-11-04T13:01:01.564Z,64.40
2023-11-04T13:03:28.576Z,64.50
2023-11-04T13:05:55.716Z,64.50
2023-11-04T13:08:22.557Z,64.50
2023-11-04T13:10:49.249Z,64.50
2023-11-04T13:13:16.117Z,64.60
2023-11-04T13:15:43.313Z,64.50
2023-11-04T13:18:10.340Z,64.50
2023-11-04T13:20:37.008Z,64.60
2023-11-04T13:23:03.663Z,64.70
2023-11-04T13:25:30.541Z,65.10
2023-11-04T13:27:57.390Z,65.70
2023-11-04T13:30:24.893Z,66.30
2023-11-04T13:32:51.749Z,66.80
2023-11-04T13:35:20.054Z,67.40
2023-11-04T13:37:47.189Z,67.80
2023-11-04T13:40:14.170Z,67.80
2023-11-04T13:42:40.949Z,67.90
2023-11-04T13:45:08.262Z,68.10
2023-11-04T13:47:37.852Z,68.20
2023-11-04T13:50:07.623Z,68.20
2023-11-04T13:52:34.861Z,68.30
2023-11-04T13:55:02.186Z,68.50
2023-11-04T13:57:29.071Z,68.60
2023-11-04T13:59:55.755Z,68.50
2023-11-04T14:02:27.561Z,68.50
2023-11-04T14:04:59.808Z,68.50
2023-11-04T14:07:26.734Z,68.40
2023-11-04T14:09:53.843Z,68.30
2023-11-04T14:12:20.523Z,68.00
2023-11-04T14:14:47.967Z,67.90
2023-11-04T14:17:14.603Z,67.90
2023-11-04T14:19:41.326Z,67.90
2023-11-04T14:22:08.232Z,67.80
2023-11-04T14:24:35.338Z,67.80
2023-11-04T14:27:02.258Z,67.70
2023-11-04T14:29:30.093Z,67.70
2023-11-04T14:31:58.569Z,67.70
2023-11-04T14:34:25.211Z,67.70
2023-11-04T14:36:51.862Z,67.70
2023-11-04T14:39:19.718Z,67.70
2023-11-04T14:41:46.582Z,67.70
2023-11-04T14:44:13.284Z,67.80
2023-11-04T14:46:39.919Z,67.70
2023-11-04T14:49:07.015Z,67.70
2023-11-04T14:51:33.776Z,67.70
2023-11-04T14:54:00.467Z,67.70
2023-11-04T14:56:27.085Z,67.70
2023-11-04T14:58:53.733Z,67.10
2023-11-04T15:01:20.814Z,64.40
2023-11-04T15:03:47.579Z,65.70
2023-11-04T15:06:14.375Z,65.50
2023-11-04T15:08:41.013Z,64.40
2023-11-04T15:11:07.703Z,65.00
2023-11-04T15:13:34.396Z,65.20
2023-11-04T15:16:01.114Z,65.20
2023-11-04T15:18:27.827Z,65.20
2023-11-04T15:20:54.538Z,65.20
2023-11-04T15:23:21.290Z,65.20
2023-11-04T15:25:48.034Z,65.30
2023-11-04T15:28:14.782Z,65.40
2023-11-04T15:30:41.458Z,65.60
2023-11-04T15:33:09.954Z,65.60
2023-11-04T15:35:37.538Z,65.60
2023-11-04T15:38:04.974Z,65.70
2023-11-04T15:40:31.632Z,65.80
2023-11-04T15:42:58.376Z,65.90
2023-11-04T15:45:26.022Z,65.90
2023-11-04T15:47:53.318Z,66.00
2023-11-04T15:50:20.429Z,66.10
2023-11-04T15:52:49.180Z,66.10
2023-11-04T15:55:16.072Z,66.10
2023-11-04T15:57:42.794Z,66.10
2023-11-04T16:00:11.327Z,66.10
2023-11-04T16:02:39.557Z,66.10
2023-11-04T16:05:06.785Z,66.20
2023-11-04T16:07:36.248Z,66.20
2023-11-04T16:10:04.888Z,66.20
2023-11-04T16:12:31.733Z,66.20
2023-11-04T16:14:58.483Z,66.30
2023-11-04T16:17:25.236Z,66.30
2023-11-04T16:19:51.964Z,66.30
2023-11-04T16:22:18.883Z,66.30
2023-11-04T16:24:49.870Z,66.30
2023-11-04T16:27:17.842Z,66.30
2023-11-04T16:29:45.228Z,66.40
2023-11-04T16:32:12.072Z,66.60
2023-11-04T16:34:38.973Z,66.30
2023-11-04T16:37:06.042Z,66.30
2023-11-04T16:39:39.747Z,66.30
2023-11-04T16:42:09.547Z,66.40
2023-11-04T16:44:36.968Z,66.40
2023-11-04T16:47:06.622Z,66.50
2023-11-04T16:49:33.419Z,66.70
2023-11-04T16:52:00.715Z,66.90
2023-11-04T16:54:28.210Z,66.80
2023-11-04T16:56:55.041Z,66.90
2023-11-04T16:59:22.109Z,66.80
2023-11-04T17:01:49.965Z,66.80
2023-11-04T17:04:16.893Z,66.90
2023-11-04T17:06:43.930Z,66.90
2023-11-04T17:09:10.821Z,67.10
2023-11-04T17:11:38.393Z,67.00
2023-11-04T17:14:05.779Z,67.20
2023-11-04T17:16:32.616Z,67.30
2023-11-04T17:18:59.399Z,67.30
2023-11-04T17:21:26.175Z,67.40
2023-11-04T17:23:52.858Z,67.40
2023-11-04T17:26:19.665Z,67.40
2023-11-04T17:28:49.295Z,67.40
2023-11-04T17:31:16.017Z,67.60
2023-11-04T17:33:43.519Z,67.90
2023-11-04T17:36:10.520Z,67.80
2023-11-04T17:38:37.200Z,67.90
2023-11-04T17:41:04.145Z,67.80
2023-11-04T17:43:31.282Z,68.00
2023-11-04T17:45:58.388Z,68.20
2023-11-04T17:48:26.081Z,68.40
2023-11-04T17:50:53.023Z,68.40
2023-11-04T17:53:20.489Z,68.40
2023-11-04T17:55:47.301Z,68.40
2023-11-04T17:58:14.007Z,68.40
2023-11-04T18:00:40.768Z,68.50
2023-11-04T18:03:07.665Z,68.60
2023-11-04T18:05:34.650Z,68.50
2023-11-04T18:08:01.420Z,68.60
2023-11-04T18:10:28.109Z,68.60
2023-11-04T18:12:55.092Z,68.80
2023-11-04T18:15:21.891Z,68.90
2023-11-04T18:17:48.714Z,69.00
2023-11-04T18:20:15.396Z,69.00
2023-11-04T18:22:42.136Z,69.00
2023-11-04T18:25:08.890Z,69.10
2023-11-04T18:27:45.978Z,69.10
2023-11-04T18:30:23.005Z,69.20
2023-11-04T18:32:51.291Z,69.60
2023-11-04T18:35:18.801Z,69.20
2023-11-04T18:37:45.931Z,69.00
2023-11-04T18:40:12.949Z,68.90
2023-11-04T18:42:39.785Z,69.10
2023-11-04T18:45:06.853Z,69.20
2023-11-04T18:47:34.387Z,68.80
2023-11-04T18:50:01.226Z,68.90
2023-11-04T18:52:30.817Z,69.00
2023-11-04T18:54:58.077Z,69.10
2023-11-04T18:57:24.860Z,69.30
2023-11-04T18:59:51.561Z,69.20
2023-11-04T19:02:20.239Z,69.20
2023-11-04T19:04:47.502Z,69.30
2023-11-04T19:07:14.462Z,69.20
2023-11-04T19:09:41.885Z,69.20
2023-11-04T19:12:09.496Z,69.10
2023-11-04T19:14:36.311Z,69.20
2023-11-04T19:17:03.086Z,69.40
2023-11-04T19:19:29.968Z,69.30
2023-11-04T19:21:56.724Z,69.20
2023-11-04T19:24:24.328Z,69.10
2023-11-04T19:26:51.092Z,69.20
2023-11-04T19:29:18.006Z,69.30
2023-11-04T19:31:44.729Z,69.40
2023-11-04T19:34:11.391Z,69.30
2023-11-04T19:36:38.133Z,69.30
2023-11-04T19:39:05.172Z,69.20
2023-11-04T19:41:31.814Z,69.30
2023-11-04T19:43:58.492Z,69.30
2023-11-04T19:46:28.276Z,69.10
2023-11-04T19:48:55.510Z,69.70
2023-11-04T19:51:22.258Z,69.00
2023-11-04T19:53:49.076Z,68.90
2023-11-04T19:56:15.892Z,68.80
2023-11-04T19:58:43.591Z,68.70
2023-11-04T20:01:10.429Z,68.50
2023-11-04T20:03:37.485Z,68.30
2023-11-04T20:06:04.700Z,68.20
2023-11-04T20:08:33.507Z,68.10
2023-11-04T20:11:00.313Z,68.20
2023-11-04T20:13:27.004Z,68.30
2023-11-04T20:15:54.133Z,68.20
2023-11-04T20:18:20.911Z,68.20
2023-11-04T20:20:48.539Z,68.10
2023-11-04T20:23:15.802Z,67.90
2023-11-04T20:25:42.581Z,67.80
2023-11-04T20:28:11.691Z,67.70
2023-11-04T20:30:38.447Z,67.70
2023-11-04T20:33:05.987Z,67.60
2023-11-04T20:35:32.822Z,67.70
2023-11-04T20:37:59.916Z,67.70
2023-11-04T20:40:27.702Z,67.60
2023-11-04T20:42:54.929Z,67.70
2023-11-04T20:45:23.545Z,67.70
2023-11-04T20:47:50.325Z,67.70
2023-11-04T20:50:17.076Z,67.70
2023-11-04T20:52:43.893Z,67.50
2023-11-04T20:55:10.679Z,67.60
2023-11-04T20:57:37.491Z,67.40
2023-11-04T21:00:05.736Z,67.20
2023-11-04T21:02:32.534Z,67.30
2023-11-04T21:04:59.412Z,67.20
2023-11-04T21:07:26.218Z,67.20
2023-11-04T21:09:53.127Z,67.10
2023-11-04T21:12:19.878Z,67.20
2023-11-04T21:14:46.603Z,67.20
2023-11-04T21:17:13.567Z,67.20
2023-11-04T21:19:40.554Z,67.20
2023-11-04T21:22:07.340Z,67.10
2023-11-04T21:24:33.989Z,67.00
2023-11-04T21:27:00.640Z,67.00
2023-11-04T21:29:27.315Z,67.10
2023-11-04T21:31:54.462Z,67.00
2023-11-04T21:34:21.822Z,67.00
2023-11-04T21:36:48.755Z,67.00
2023-11-04T21:39:27.186Z,66.90
2023-11-04T21:41:57.906Z,66.90
2023-11-04T21:44:25.266Z,66.70
2023-11-04T21:46:51.978Z,66.80
2023-11-04T21:49:18.732Z,66.80
2023-11-04T21:51:45.393Z,66.80
2023-11-04T21:54:12.049Z,66.70
2023-11-04T21:56:38.837Z,66.70
2023-11-04T21:59:05.465Z,66.60
2023-11-04T22:01:32.285Z,66.60
2023-11-04T22:03:59.210Z,66.50
2023-11-04T22:06:25.874Z,66.60
2023-11-04T22:08:52.538Z,66.60
2023-11-04T22:11:19.270Z,66.50
2023-11-04T22:13:46.011Z,66.60
2023-11-04T22:16:13.089Z,66.50
2023-11-04T22:18:40.624Z,66.50
2023-11-04T22:21:07.721Z,66.50
2023-11-04T22:23:34.348Z,66.60
2023-11-04T22:26:01.108Z,66.50
2023-11-04T22:28:27.813Z,66.40
2023-11-04T22:30:54.590Z,66.50
2023-11-04T22:33:21.241Z,66.40
2023-11-04T22:35:47.910Z,66.40
2023-11-04T22:38:14.565Z,66.40
2023-11-04T22:40:41.819Z,66.40
2023-11-04T22:43:08.478Z,66.40
2023-11-04T22:45:35.156Z,66.40
2023-11-04T22:48:01.963Z,66.40
2023-11-04T22:50:28.727Z,66.40
2023-11-04T22:52:55.447Z,66.30
2023-11-04T22:55:22.236Z,66.30
2023-11-04T22:57:49.180Z,66.30
2023-11-04T23:00:39.510Z,66.30
2023-11-04T23:03:07.529Z,66.40
2023-11-04T23:05:34.466Z,66.40
2023-11-04T23:08:01.288Z,66.30
2023-11-04T23:10:28.251Z,66.40
2023-11-04T23:12:54.949Z,66.30
2023-11-04T23:15:25.550Z,66.30
2023-11-04T23:17:53.561Z,66.30
2023-11-04T23:20:22.769Z,66.20
2023-11-04T23:22:51.450Z,66.30
2023-11-04T23:25:21.428Z,66.30
2023-11-04T23:27:49.314Z,66.20
2023-11-04T23:30:16.051Z,66.20
2023-11-04T23:32:43.225Z,66.20
2023-11-04T23:35:10.131Z,66.20
2023-11-04T23:37:36.826Z,66.20
2023-11-04T23:40:06.133Z,66.20
2023-11-04T23:42:32.986Z,66.20
2023-11-04T23:45:00.000Z,66.20
2023-11-04T23:47:26.732Z,66.10
2023-11-04T23:49:53.402Z,66.20
2023-11-04T23:52:20.197Z,66.10
2023-11-04T23:54:46.857Z,66.20
2023-11-04T23:57:13.518Z,66.00
2023-11-04T23:59:41.682Z,66.10
